createdAt,value
2024-04-12T00:03:06.635Z,25
2024-04-12T00:08:19.519Z,22
2024-04-12T00:13:32.372Z,27
2024-04-12T00:23:57.874Z,21
2024-04-12T00:29:10.620Z,23
2024-04-12T00:34:23.586Z,25
2024-04-12T00:39:36.365Z,26
2024-04-12T00:44:49.003Z,34
2024-04-12T00:50:01.859Z,31
2024-04-12T00:55:20.841Z,31
2024-04-12T01:00:33.507Z,26
2024-04-12T01:10:59.006Z,25
2024-04-12T01:16:11.691Z,30
2024-04-12T01:21:24.445Z,21
2024-04-12T01:26:37.314Z,19
2024-04-12T01:31:50.304Z,19
2024-04-12T01:37:02.942Z,20
2024-04-12T01:42:15.830Z,22
2024-04-12T01:47:28.425Z,18
2024-04-12T01:52:41.316Z,21
2024-04-12T01:57:54.161Z,23
2024-04-12T02:03:06.956Z,24
2024-04-12T02:08:19.723Z,23
2024-04-12T02:13:32.339Z,23
2024-04-12T02:18:45.354Z,27
2024-04-12T02:23:58.233Z,24
2024-04-12T02:29:11.111Z,24
2024-04-12T02:34:23.884Z,23
2024-04-12T02:39:36.931Z,25
2024-04-12T02:44:49.646Z,27
2024-04-12T02:50:02.635Z,23
2024-04-12T02:55:15.381Z,22
2024-04-12T03:00:28.286Z,26
2024-04-12T03:05:40.887Z,27
2024-04-12T03:10:53.958Z,29
2024-04-12T03:16:06.824Z,26
2024-04-12T03:21:19.675Z,24
2024-04-12T03:26:32.339Z,26
2024-04-12T03:31:45.019Z,26
2024-04-12T03:36:58.080Z,23
2024-04-12T03:42:09.982Z,23
2024-04-12T03:47:22.972Z,24
2024-04-12T03:52:35.834Z,28
2024-04-12T03:57:48.608Z,25
2024-04-12T04:03:01.448Z,26
2024-04-12T04:08:14.414Z,27
2024-04-12T04:13:27.349Z,28
2024-04-12T04:18:40.206Z,35
2024-04-12T04:23:53.059Z,29
2024-04-12T04:29:05.868Z,30
2024-04-12T04:34:18.734Z,31
2024-04-12T04:39:31.501Z,34
2024-04-12T04:44:44.279Z,26
2024-04-12T04:49:57.046Z,29
2024-04-12T04:55:10.016Z,24
2024-04-12T05:00:22.948Z,31
2024-04-12T05:05:35.812Z,22
2024-04-12T05:10:48.637Z,40
2024-04-12T05:16:01.475Z,42
2024-04-12T05:21:14.146Z,37
2024-04-12T05:26:27.056Z,32
2024-04-12T05:31:39.946Z,34
2024-04-12T05:42:11.807Z,42
2024-04-12T05:47:37.758Z,38
2024-04-12T05:53:03.888Z,35
2024-04-12T05:58:28.763Z,39
2024-04-12T06:03:41.702Z,44
2024-04-12T06:08:54.472Z,45
2024-04-12T06:14:07.370Z,44
2024-04-12T06:19:20.240Z,44
2024-04-12T06:24:33.198Z,48
2024-04-12T06:29:46.090Z,51
2024-04-12T06:34:59.114Z,50
2024-04-12T06:40:12.052Z,51
2024-04-12T06:45:25.019Z,59
2024-04-12T06:50:37.800Z,81
2024-04-12T06:55:50.625Z,67
2024-04-12T07:01:03.384Z,64
2024-04-12T07:06:16.347Z,65
2024-04-12T07:11:29.480Z,46
2024-04-12T07:16:42.512Z,56
2024-04-12T07:21:55.457Z,65
2024-04-12T07:27:08.442Z,57
2024-04-12T07:32:21.198Z,53
2024-04-12T07:37:34.379Z,57
2024-04-12T07:42:47.225Z,70
2024-04-12T07:48:00.139Z,77
2024-04-12T07:53:13.130Z,66
2024-04-12T07:58:26.013Z,66
2024-04-12T08:03:38.774Z,82
2024-04-12T08:08:51.756Z,61
2024-04-12T08:14:04.722Z,66
2024-04-12T08:19:17.562Z,70
2024-04-12T08:24:30.341Z,88
2024-04-12T08:29:43.251Z,87
2024-04-12T08:34:56.076Z,78
2024-04-12T08:40:08.913Z,103
2024-04-12T08:45:20.818Z,103
2024-04-12T08:50:33.629Z,110
2024-04-12T08:55:46.500Z,109
2024-04-12T09:00:59.125Z,106
2024-04-12T09:06:11.964Z,100
2024-04-12T09:11:24.911Z,108
2024-04-12T09:16:37.679Z,98
2024-04-12T09:21:50.352Z,113
2024-04-12T09:27:02.995Z,101
2024-04-12T09:32:15.731Z,106
2024-04-12T09:37:34.748Z,90
2024-04-12T09:42:47.670Z,90
2024-04-12T09:48:00.759Z,87
2024-04-12T09:53:13.740Z,81
2024-04-12T09:58:26.653Z,90
2024-04-12T10:03:39.468Z,91
2024-04-12T10:08:52.408Z,107
2024-04-12T10:14:05.257Z,111
2024-04-12T10:19:17.988Z,114
2024-04-12T10:24:30.613Z,118
2024-04-12T10:29:43.496Z,131
2024-04-12T10:34:56.463Z,111
2024-04-12T10:40:09.158Z,109
2024-04-12T10:45:21.998Z,129
2024-04-12T10:50:34.985Z,129
2024-04-12T10:55:47.867Z,117
2024-04-12T11:01:00.744Z,118
2024-04-12T11:06:13.607Z,137
2024-04-12T11:11:26.475Z,123
2024-04-12T11:16:39.320Z,107
2024-04-12T11:21:52.110Z,120
2024-04-12T11:27:04.946Z,121
2024-04-12T11:32:17.829Z,114
2024-04-12T11:37:30.580Z,105
2024-04-12T11:42:43.249Z,121
2024-04-12T11:47:55.881Z,102
2024-04-12T11:53:08.486Z,118
2024-04-12T11:58:21.173Z,103
2024-04-12T12:03:34.079Z,110
2024-04-12T12:08:46.840Z,109
2024-04-12T12:13:59.763Z,107
2024-04-12T12:19:12.450Z,119
2024-04-12T12:24:24.388Z,99
2024-04-12T12:29:37.239Z,122
2024-04-12T12:34:49.994Z,123
2024-04-12T12:40:02.822Z,128
2024-04-12T12:45:15.542Z,135
2024-04-12T12:50:28.232Z,130
2024-04-12T12:55:40.934Z,150
2024-04-12T13:00:53.833Z,162
2024-04-12T13:06:06.600Z,144
2024-04-12T13:11:19.563Z,150
2024-04-12T13:16:32.514Z,147
2024-04-12T13:21:45.325Z,161
2024-04-12T13:26:58.186Z,153
2024-04-12T13:32:10.939Z,146
2024-04-12T13:37:23.733Z,158
2024-04-12T13:42:36.441Z,171
2024-04-12T13:47:49.372Z,154
2024-04-12T13:53:02.098Z,178
2024-04-12T13:58:14.835Z,159
2024-04-12T14:03:27.620Z,147
2024-04-12T14:08:40.439Z,118
2024-04-12T14:13:53.130Z,152
2024-04-12T14:19:05.637Z,192
2024-04-12T14:24:18.439Z,199
2024-04-12T14:29:31.288Z,164
2024-04-12T14:34:44.033Z,184
2024-04-12T14:39:56.847Z,188
2024-04-12T14:45:09.670Z,165
2024-04-12T14:50:22.396Z,159
2024-04-12T14:55:35.037Z,170
2024-04-12T15:00:47.627Z,191
2024-04-12T15:11:12.704Z,169
2024-04-12T15:16:25.282Z,162
2024-04-12T15:21:49.910Z,160
2024-04-12T15:27:15.711Z,145
2024-04-12T15:32:40.496Z,152
2024-04-12T15:37:53.192Z,134
2024-04-12T15:43:05.791Z,124
2024-04-12T15:48:18.355Z,133
2024-04-12T15:53:30.941Z,104
2024-04-12T15:58:43.658Z,112
2024-04-12T16:03:56.443Z,126
2024-04-12T16:09:21.356Z,137
2024-04-12T16:14:47.363Z,99
2024-04-12T16:20:13.079Z,115
2024-04-12T16:25:31.754Z,121
2024-04-12T16:30:44.549Z,147
2024-04-12T16:35:57.139Z,137
2024-04-12T16:41:09.928Z,148
2024-04-12T16:46:22.729Z,147
2024-04-12T16:51:35.630Z,136
2024-04-12T16:56:48.257Z,154
2024-04-12T17:02:01.036Z,151
2024-04-12T17:07:13.750Z,142
2024-04-12T17:12:26.368Z,129
2024-04-12T17:17:38.959Z,152
2024-04-12T17:22:51.684Z,157
2024-04-12T17:28:04.511Z,121
2024-04-12T17:33:17.196Z,117
2024-04-12T17:38:29.826Z,106
2024-04-12T17:43:42.736Z,128
2024-04-12T17:48:55.340Z,120
2024-04-12T17:54:08.003Z,128
2024-04-12T17:59:20.867Z,114
2024-04-12T18:04:33.461Z,152
2024-04-12T18:09:52.217Z,136
2024-04-12T18:15:04.896Z,149
2024-04-12T18:20:17.439Z,128
2024-04-12T18:25:30.158Z,125
2024-04-12T18:30:42.737Z,152
2024-04-12T18:35:55.354Z,146
2024-04-12T18:41:08.006Z,153
2024-04-12T18:46:20.655Z,151
2024-04-12T18:51:33.260Z,123
2024-04-12T18:56:45.907Z,125
2024-04-12T19:01:58.607Z,127
2024-04-12T19:07:11.286Z,109
2024-04-12T19:12:23.995Z,96
2024-04-12T19:17:36.569Z,100
2024-04-12T19:22:49.149Z,111
2024-04-12T19:28:01.838Z,93
2024-04-12T19:33:14.674Z,100
2024-04-12T19:38:27.304Z,101
2024-04-12T19:48:52.794Z,76
2024-04-12T19:59:24.466Z,78
2024-04-12T20:04:50.321Z,78
2024-04-12T20:10:16.229Z,77
2024-04-12T20:15:35.151Z,93
2024-04-12T20:26:00.625Z,75
2024-04-12T20:31:13.526Z,54
2024-04-12T20:36:26.208Z,42
2024-04-12T20:41:38.972Z,45
2024-04-12T20:52:10.549Z,46
2024-04-12T20:57:36.459Z,42
2024-04-12T21:03:02.335Z,33
2024-04-12T21:08:21.186Z,35
2024-04-12T21:13:34.132Z,41
2024-04-12T21:18:46.811Z,46
2024-04-12T21:23:59.521Z,37
2024-04-12T21:29:12.115Z,45
2024-04-12T21:39:37.540Z,41
2024-04-12T21:45:02.528Z,46
2024-04-12T21:50:28.356Z,46
2024-04-12T21:55:53.186Z,47
2024-04-12T22:01:05.812Z,48
2024-04-12T22:06:18.544Z,49
2024-04-12T22:11:31.317Z,54
2024-04-12T22:16:44.167Z,49
2024-04-12T22:21:56.842Z,50
2024-04-12T22:27:09.602Z,55
2024-04-12T22:32:22.391Z,52
2024-04-12T22:37:35.246Z,47
2024-04-12T22:42:48.000Z,45
2024-04-12T22:48:00.687Z,35
2024-04-12T22:53:13.581Z,33
2024-04-12T22:58:26.227Z,39
2024-04-12T23:03:39.051Z,45
2024-04-12T23:08:52.091Z,40
2024-04-12T23:14:04.802Z,39
2024-04-12T23:19:17.693Z,39
2024-04-12T23:24:30.586Z,39
2024-04-12T23:29:43.219Z,39
2024-04-12T23:34:55.922Z,39
2024-04-12T23:40:08.763Z,41
2024-04-12T23:45:21.606Z,48
2024-04-12T23:50:34.217Z,39
2024-04-12T23:55:47.265Z,35
